Shefford, United Kingdom
Current Conditions -  °F | °C
As of 1:50 AM on Thursday 27 Nov 2014 (Local Time) from EGGW Reporting Station
Haze Haze  
Wind Chill: 46°   Ceiling: 200
Heat Index: 46°   Visibility: 1mi
Dew Point: 46°   Wind: 3mph
Humidity: 100%   Direction: 40°NE
Pressure: 29.68"   Gusts: NA
Location:  52.04°N, 0.33°W
Report Text: EGGW 270150Z 04003KT 1600 BR OVC002 08/08 Q1005
Loading
Personal Weather Stations






























Interactive Weather Map New forecast layout! Learn more

10-Day Weather Forecast

Advertisements
Track Severe Weather on mobile